< < Back
Terminal Aerodrome Forecast


Current Version              Previous Versions:   1  2  3  4  5  6  7  8  9  

Terminal Aerodrome Forecast

471
FTUS42 KMLB 222300
TAFMCO
TAF
KMCO 222325Z 2300/2324 27009KT P6SM SCT030 SCT150 BKN250
     FM230300 27003KT P6SM FEW035 BKN250
     FM231200 25005KT P6SM FEW030=



Latest METAR

789
SAUS70 KWBC 231058
MTRMCO
METAR KMCO 231053Z 28004KT 10SM SCT018 18/16 A2992 RMK AO2 SLP130
T01780161


USA.gov is the U.S. government's official web portal to all federal, state and local government web resources and services.